KNTU

Naval Air Station Oceana

Airport
ICAO code
KNTU
Summary
ICAO Region
NAM
ICAO Territory
Location

Virginia Beach, Virginia,

Coordinates
36° 48' 56" N , 76° 1' 56" W
KCC
Airport LOS
Parallel Runway Operation
Metar
KNTU 191156Z 07005KT 10SM OVC005 11/09 A3011 RMK AO2 SLP198 T01110094 10111 20100 53005

Description

Naval Air Station Oceana or NAS Oceana, also known as Apollo Soucek Field, is a military airport located in Virginia Beach, Virginia.

Climatology

Humid “subtropical” climate (Köppen climate classification Cfa) - characterized by hot, humid summers and cool winters. Significant amounts of precipitation occur in all seasons in most areas. Winter rainfall (and sometimes snowfall) is associated with large storms that the westerlies steer from west to east. Most summer rainfall occurs during thunderstorms and occasional tropical storms (hurricanes).

Runways

Designator Length Width Surface Rops
14L/32R 2438 46 CON Yes/Yes
14R/32L 2438 61 PEM Yes/Yes
05L/23R 2439 46 CON Yes/Yes
05R/23L 3657 61 PEM Yes/Yes

Airport map

Aerial View

SKYbrary Partners:

Safety knowledge contributed by: